sensor_id;sensor_type;location;lat;lon;timestamp;P1;durP1;ratioP1;P2;durP2;ratioP2
1603;SDS011;795;49.296;11.348;2023-03-29T00:00:00;2.88;;;2.53;;
1603;SDS011;795;49.296;11.348;2023-03-29T00:02:28;6.95;;;3.03;;
1603;SDS011;795;49.296;11.348;2023-03-29T00:04:56;2.65;;;2.45;;
1603;SDS011;795;49.296;11.348;2023-03-29T00:07:27;4.38;;;3.35;;
1603;SDS011;795;49.296;11.348;2023-03-29T00:09:58;5.93;;;3.03;;
1603;SDS011;795;49.296;11.348;2023-03-29T00:12:30;5.68;;;3.03;;
1603;SDS011;795;49.296;11.348;2023-03-29T00:14:57;4.13;;;2.22;;
1603;SDS011;795;49.296;11.348;2023-03-29T00:17:24;6.00;;;2.60;;
1603;SDS011;795;49.296;11.348;2023-03-29T00:19:51;3.00;;;2.80;;
1603;SDS011;795;49.296;11.348;2023-03-29T00:22:18;2.85;;;2.20;;
1603;SDS011;795;49.296;11.348;2023-03-29T00:24:46;3.72;;;2.90;;
1603;SDS011;795;49.296;11.348;2023-03-29T00:27:14;3.10;;;2.80;;
1603;SDS011;795;49.296;11.348;2023-03-29T00:29:41;4.57;;;3.40;;
1603;SDS011;795;49.296;11.348;2023-03-29T00:32:08;5.80;;;3.17;;
1603;SDS011;795;49.296;11.348;2023-03-29T00:34:35;2.87;;;2.67;;
1603;SDS011;795;49.296;11.348;2023-03-29T00:37:02;6.22;;;3.00;;
1603;SDS011;795;49.296;11.348;2023-03-29T00:39:33;3.25;;;2.95;;
1603;SDS011;795;49.296;11.348;2023-03-29T00:42:02;10.82;;;3.42;;
1603;SDS011;795;49.296;11.348;2023-03-29T00:47:47;4.32;;;3.40;;
1603;SDS011;795;49.296;11.348;2023-03-29T00:50:42;4.90;;;3.20;;
1603;SDS011;795;49.296;11.348;2023-03-29T00:53:20;4.30;;;2.97;;
1603;SDS011;795;49.296;11.348;2023-03-29T00:56:02;3.28;;;2.97;;
1603;SDS011;795;49.296;11.348;2023-03-29T00:58:38;7.60;;;2.95;;
1603;SDS011;795;49.296;11.348;2023-03-29T01:01:22;4.10;;;2.97;;
1603;SDS011;795;49.296;11.348;2023-03-29T01:04:24;3.65;;;3.35;;
1603;SDS011;795;49.296;11.348;2023-03-29T01:07:09;3.05;;;2.80;;
1603;SDS011;795;49.296;11.348;2023-03-29T01:09:49;5.17;;;2.90;;
1603;SDS011;795;49.296;11.348;2023-03-29T01:12:30;6.05;;;3.00;;
1603;SDS011;795;49.296;11.348;2023-03-29T01:15:10;4.15;;;3.45;;
1603;SDS011;795;49.296;11.348;2023-03-29T01:17:46;3.10;;;2.90;;
1603;SDS011;795;49.296;11.348;2023-03-29T01:20:20;3.70;;;3.17;;
1603;SDS011;795;49.296;11.348;2023-03-29T01:23:14;3.47;;;3.17;;
1603;SDS011;795;49.296;11.348;2023-03-29T01:28:59;4.03;;;3.63;;
1603;SDS011;795;49.296;11.348;2023-03-29T01:31:44;4.33;;;3.67;;
1603;SDS011;795;49.296;11.348;2023-03-29T01:34:26;3.83;;;3.40;;
1603;SDS011;795;49.296;11.348;2023-03-29T01:37:21;3.75;;;3.45;;
1603;SDS011;795;49.296;11.348;2023-03-29T01:39:59;6.03;;;3.60;;
1603;SDS011;795;49.296;11.348;2023-03-29T01:45:36;4.22;;;3.38;;
1603;SDS011;795;49.296;11.348;2023-03-29T01:48:18;3.78;;;3.42;;
1603;SDS011;795;49.296;11.348;2023-03-29T01:51:37;6.45;;;3.83;;
1603;SDS011;795;49.296;11.348;2023-03-29T01:54:46;3.83;;;3.28;;
1603;SDS011;795;49.296;11.348;2023-03-29T01:57:22;6.22;;;3.55;;
1603;SDS011;795;49.296;11.348;2023-03-29T01:59:53;4.03;;;3.63;;
1603;SDS011;795;49.296;11.348;2023-03-29T02:02:23;4.67;;;3.00;;
1603;SDS011;795;49.296;11.348;2023-03-29T02:04:55;4.70;;;3.60;;
1603;SDS011;795;49.296;11.348;2023-03-29T02:07:25;3.95;;;3.30;;
1603;SDS011;795;49.296;11.348;2023-03-29T02:10:02;4.63;;;3.15;;
1603;SDS011;795;49.296;11.348;2023-03-29T02:12:33;3.92;;;3.60;;
1603;SDS011;795;49.296;11.348;2023-03-29T02:15:01;4.35;;;3.80;;
1603;SDS011;795;49.296;11.348;2023-03-29T02:17:35;5.35;;;3.30;;
1603;SDS011;795;49.296;11.348;2023-03-29T02:20:16;6.72;;;4.03;;
1603;SDS011;795;49.296;11.348;2023-03-29T02:23:14;3.47;;;3.17;;
1603;SDS011;795;49.296;11.348;2023-03-29T02:25:55;4.85;;;3.38;;
1603;SDS011;795;49.296;11.348;2023-03-29T02:28:23;4.18;;;3.40;;
1603;SDS011;795;49.296;11.348;2023-03-29T02:31:04;3.63;;;3.28;;
1603;SDS011;795;49.296;11.348;2023-03-29T02:34:05;5.35;;;3.10;;
1603;SDS011;795;49.296;11.348;2023-03-29T02:36:59;6.18;;;3.92;;
1603;SDS011;795;49.296;11.348;2023-03-29T02:39:37;4.55;;;3.72;;
1603;SDS011;795;49.296;11.348;2023-03-29T02:42:06;3.35;;;3.05;;
1603;SDS011;795;49.296;11.348;2023-03-29T02:44:36;4.15;;;3.60;;
1603;SDS011;795;49.296;11.348;2023-03-29T02:47:11;3.65;;;3.35;;
1603;SDS011;795;49.296;11.348;2023-03-29T02:49:47;3.75;;;3.45;;
1603;SDS011;795;49.296;11.348;2023-03-29T02:52:15;5.43;;;3.67;;
1603;SDS011;795;49.296;11.348;2023-03-29T02:54:53;3.88;;;3.58;;
1603;SDS011;795;49.296;11.348;2023-03-29T02:57:22;3.85;;;3.53;;
1603;SDS011;795;49.296;11.348;2023-03-29T02:59:52;4.35;;;3.28;;
1603;SDS011;795;49.296;11.348;2023-03-29T03:02:23;7.43;;;4.72;;
1603;SDS011;795;49.296;11.348;2023-03-29T03:04:54;4.20;;;3.90;;
1603;SDS011;795;49.296;11.348;2023-03-29T03:07:22;6.55;;;4.50;;
1603;SDS011;795;49.296;11.348;2023-03-29T03:09:49;4.97;;;3.67;;
1603;SDS011;795;49.296;11.348;2023-03-29T03:12:16;3.80;;;3.13;;
1603;SDS011;795;49.296;11.348;2023-03-29T03:14:43;4.63;;;3.70;;
1603;SDS011;795;49.296;11.348;2023-03-29T03:17:10;12.52;;;4.63;;
1603;SDS011;795;49.296;11.348;2023-03-29T03:19:37;4.35;;;3.95;;
1603;SDS011;795;49.296;11.348;2023-03-29T03:22:04;3.50;;;3.20;;
1603;SDS011;795;49.296;11.348;2023-03-29T03:24:32;5.97;;;3.95;;
1603;SDS011;795;49.296;11.348;2023-03-29T03:27:00;5.07;;;3.92;;
1603;SDS011;795;49.296;11.348;2023-03-29T03:29:27;3.63;;;3.33;;
1603;SDS011;795;49.296;11.348;2023-03-29T03:31:54;7.43;;;3.75;;
1603;SDS011;795;49.296;11.348;2023-03-29T03:34:21;5.07;;;3.85;;
1603;SDS011;795;49.296;11.348;2023-03-29T03:36:48;4.90;;;4.40;;
1603;SDS011;795;49.296;11.348;2023-03-29T03:39:15;8.90;;;4.28;;
1603;SDS011;795;49.296;11.348;2023-03-29T03:41:42;6.38;;;4.88;;
1603;SDS011;795;49.296;11.348;2023-03-29T03:44:09;3.97;;;3.65;;
1603;SDS011;795;49.296;11.348;2023-03-29T03:46:36;4.30;;;3.90;;
1603;SDS011;795;49.296;11.348;2023-03-29T03:49:03;6.18;;;4.88;;
1603;SDS011;795;49.296;11.348;2023-03-29T03:51:30;4.03;;;3.63;;
1603;SDS011;795;49.296;11.348;2023-03-29T03:53:57;6.57;;;4.55;;
1603;SDS011;795;49.296;11.348;2023-03-29T03:56:24;4.47;;;3.95;;
1603;SDS011;795;49.296;11.348;2023-03-29T03:58:54;4.80;;;4.15;;
1603;SDS011;795;49.296;11.348;2023-03-29T04:01:22;4.80;;;4.30;;
1603;SDS011;795;49.296;11.348;2023-03-29T04:03:49;5.70;;;4.15;;
1603;SDS011;795;49.296;11.348;2023-03-29T04:06:16;4.30;;;4.00;;
1603;SDS011;795;49.296;11.348;2023-03-29T04:08:43;7.43;;;4.43;;
1603;SDS011;795;49.296;11.348;2023-03-29T04:11:10;6.10;;;5.10;;
1603;SDS011;795;49.296;11.348;2023-03-29T04:13:37;5.18;;;4.65;;
1603;SDS011;795;49.296;11.348;2023-03-29T04:16:04;6.88;;;4.65;;
1603;SDS011;795;49.296;11.348;2023-03-29T04:18:32;10.27;;;5.05;;
1603;SDS011;795;49.296;11.348;2023-03-29T04:20:59;7.32;;;5.35;;
1603;SDS011;795;49.296;11.348;2023-03-29T04:23:27;5.38;;;4.88;;
1603;SDS011;795;49.296;11.348;2023-03-29T04:25:54;5.82;;;5.10;;
1603;SDS011;795;49.296;11.348;2023-03-29T04:28:24;7.07;;;5.10;;
1603;SDS011;795;49.296;11.348;2023-03-29T04:30:51;5.30;;;4.80;;
1603;SDS011;795;49.296;11.348;2023-03-29T04:33:18;5.72;;;5.13;;
1603;SDS011;795;49.296;11.348;2023-03-29T04:35:46;7.60;;;5.18;;
1603;SDS011;795;49.296;11.348;2023-03-29T04:38:13;7.03;;;5.70;;
1603;SDS011;795;49.296;11.348;2023-03-29T04:40:41;10.07;;;5.57;;
1603;SDS011;795;49.296;11.348;2023-03-29T04:43:09;4.65;;;4.25;;
1603;SDS011;795;49.296;11.348;2023-03-29T04:45:37;6.80;;;6.07;;
1603;SDS011;795;49.296;11.348;2023-03-29T04:48:04;10.00;;;5.70;;
1603;SDS011;795;49.296;11.348;2023-03-29T04:50:31;6.53;;;5.55;;
1603;SDS011;795;49.296;11.348;2023-03-29T04:52:59;6.93;;;5.18;;
1603;SDS011;795;49.296;11.348;2023-03-29T04:55:26;6.93;;;6.05;;
1603;SDS011;795;49.296;11.348;2023-03-29T04:57:53;8.95;;;5.93;;
1603;SDS011;795;49.296;11.348;2023-03-29T05:00:20;7.63;;;4.60;;
1603;SDS011;795;49.296;11.348;2023-03-29T05:02:52;6.95;;;5.65;;
1603;SDS011;795;49.296;11.348;2023-03-29T05:05:19;7.30;;;5.60;;
1603;SDS011;795;49.296;11.348;2023-03-29T05:07:46;6.85;;;6.20;;
1603;SDS011;795;49.296;11.348;2023-03-29T05:10:14;6.60;;;5.57;;
1603;SDS011;795;49.296;11.348;2023-03-29T05:12:41;7.28;;;5.95;;
1603;SDS011;795;49.296;11.348;2023-03-29T05:15:08;6.78;;;6.07;;
1603;SDS011;795;49.296;11.348;2023-03-29T05:17:36;6.13;;;5.45;;
1603;SDS011;795;49.296;11.348;2023-03-29T05:20:03;5.57;;;5.07;;
1603;SDS011;795;49.296;11.348;2023-03-29T05:22:34;8.20;;;5.53;;
1603;SDS011;795;49.296;11.348;2023-03-29T05:25:01;6.55;;;5.35;;
1603;SDS011;795;49.296;11.348;2023-03-29T05:27:29;5.53;;;5.03;;
1603;SDS011;795;49.296;11.348;2023-03-29T05:29:58;7.95;;;5.70;;
1603;SDS011;795;49.296;11.348;2023-03-29T05:32:27;7.68;;;5.95;;
1603;SDS011;795;49.296;11.348;2023-03-29T05:34:54;7.15;;;5.57;;
1603;SDS011;795;49.296;11.348;2023-03-29T05:37:21;9.73;;;6.35;;
1603;SDS011;795;49.296;11.348;2023-03-29T05:39:48;6.95;;;5.78;;
1603;SDS011;795;49.296;11.348;2023-03-29T05:42:15;7.25;;;5.25;;
1603;SDS011;795;49.296;11.348;2023-03-29T05:44:44;7.70;;;6.28;;
1603;SDS011;795;49.296;11.348;2023-03-29T05:47:11;6.90;;;6.05;;
1603;SDS011;795;49.296;11.348;2023-03-29T05:49:37;5.70;;;5.18;;
1603;SDS011;795;49.296;11.348;2023-03-29T05:52:04;7.75;;;5.05;;
1603;SDS011;795;49.296;11.348;2023-03-29T05:54:32;7.20;;;5.03;;
1603;SDS011;795;49.296;11.348;2023-03-29T05:56:59;7.82;;;5.55;;
1603;SDS011;795;49.296;11.348;2023-03-29T05:59:26;7.13;;;5.13;;
1603;SDS011;795;49.296;11.348;2023-03-29T06:01:54;8.00;;;6.20;;
1603;SDS011;795;49.296;11.348;2023-03-29T06:04:21;5.63;;;5.00;;
1603;SDS011;795;49.296;11.348;2023-03-29T06:06:49;6.07;;;5.28;;
1603;SDS011;795;49.296;11.348;2023-03-29T06:09:18;5.95;;;5.35;;
1603;SDS011;795;49.296;11.348;2023-03-29T06:11:45;6.57;;;5.88;;
1603;SDS011;795;49.296;11.348;2023-03-29T06:14:12;9.63;;;5.32;;
1603;SDS011;795;49.296;11.348;2023-03-29T06:16:40;5.75;;;5.22;;
1603;SDS011;795;49.296;11.348;2023-03-29T06:19:08;7.97;;;5.95;;
1603;SDS011;795;49.296;11.348;2023-03-29T06:21:35;5.68;;;5.15;;
1603;SDS011;795;49.296;11.348;2023-03-29T06:24:02;5.63;;;4.80;;
1603;SDS011;795;49.296;11.348;2023-03-29T06:26:30;6.38;;;5.65;;
1603;SDS011;795;49.296;11.348;2023-03-29T06:28:57;6.80;;;5.33;;
1603;SDS011;795;49.296;11.348;2023-03-29T06:31:24;6.53;;;5.72;;
1603;SDS011;795;49.296;11.348;2023-03-29T06:33:51;5.65;;;5.15;;
1603;SDS011;795;49.296;11.348;2023-03-29T06:36:18;4.90;;;4.37;;
1603;SDS011;795;49.296;11.348;2023-03-29T06:38:45;6.28;;;5.68;;
1603;SDS011;795;49.296;11.348;2023-03-29T06:41:13;5.50;;;4.95;;
1603;SDS011;795;49.296;11.348;2023-03-29T06:43:40;5.78;;;4.80;;
1603;SDS011;795;49.296;11.348;2023-03-29T06:46:08;6.38;;;5.30;;
1603;SDS011;795;49.296;11.348;2023-03-29T06:48:37;7.55;;;5.05;;
1603;SDS011;795;49.296;11.348;2023-03-29T06:51:06;5.55;;;5.05;;
1603;SDS011;795;49.296;11.348;2023-03-29T06:53:33;7.82;;;5.55;;
1603;SDS011;795;49.296;11.348;2023-03-29T06:56:02;6.50;;;5.27;;
1603;SDS011;795;49.296;11.348;2023-03-29T06:58:34;5.83;;;5.23;;
1603;SDS011;795;49.296;11.348;2023-03-29T07:01:01;6.10;;;5.53;;
1603;SDS011;795;49.296;11.348;2023-03-29T07:03:29;6.77;;;5.23;;
1603;SDS011;795;49.296;11.348;2023-03-29T07:06:00;8.53;;;5.70;;
1603;SDS011;795;49.296;11.348;2023-03-29T07:08:35;6.87;;;5.70;;
1603;SDS011;795;49.296;11.348;2023-03-29T07:11:12;6.17;;;5.20;;
1603;SDS011;795;49.296;11.348;2023-03-29T07:13:41;5.40;;;5.00;;
1603;SDS011;795;49.296;11.348;2023-03-29T07:16:10;5.50;;;5.03;;
1603;SDS011;795;49.296;11.348;2023-03-29T07:18:39;6.60;;;5.60;;
1603;SDS011;795;49.296;11.348;2023-03-29T07:21:09;6.50;;;5.40;;
1603;SDS011;795;49.296;11.348;2023-03-29T07:23:38;6.00;;;5.07;;
1603;SDS011;795;49.296;11.348;2023-03-29T07:26:06;6.20;;;5.03;;
1603;SDS011;795;49.296;11.348;2023-03-29T07:28:35;7.00;;;4.80;;
1603;SDS011;795;49.296;11.348;2023-03-29T07:31:08;5.20;;;4.70;;
1603;SDS011;795;49.296;11.348;2023-03-29T07:33:37;5.10;;;4.67;;
1603;SDS011;795;49.296;11.348;2023-03-29T07:36:05;5.93;;;4.43;;
1603;SDS011;795;49.296;11.348;2023-03-29T07:38:33;4.70;;;4.30;;
1603;SDS011;795;49.296;11.348;2023-03-29T07:41:01;5.57;;;4.13;;
1603;SDS011;795;49.296;11.348;2023-03-29T07:43:32;9.13;;;5.57;;
1603;SDS011;795;49.296;11.348;2023-03-29T07:46:03;6.00;;;4.77;;
1603;SDS011;795;49.296;11.348;2023-03-29T07:48:31;5.30;;;4.77;;
1603;SDS011;795;49.296;11.348;2023-03-29T07:50:58;6.67;;;4.57;;
1603;SDS011;795;49.296;11.348;2023-03-29T07:53:26;4.60;;;3.90;;
1603;SDS011;795;49.296;11.348;2023-03-29T07:55:54;6.10;;;4.97;;
1603;SDS011;795;49.296;11.348;2023-03-29T07:58:22;6.33;;;5.30;;
1603;SDS011;795;49.296;11.348;2023-03-29T08:03:56;5.50;;;4.40;;
1603;SDS011;795;49.296;11.348;2023-03-29T08:06:23;4.43;;;4.03;;
1603;SDS011;795;49.296;11.348;2023-03-29T08:08:52;4.93;;;4.33;;
1603;SDS011;795;49.296;11.348;2023-03-29T08:11:19;4.60;;;4.10;;
1603;SDS011;795;49.296;11.348;2023-03-29T08:13:46;5.83;;;4.83;;
1603;SDS011;795;49.296;11.348;2023-03-29T08:16:13;6.30;;;5.03;;
1603;SDS011;795;49.296;11.348;2023-03-29T08:18:40;5.90;;;4.70;;
1603;SDS011;795;49.296;11.348;2023-03-29T08:21:07;4.60;;;4.20;;
1603;SDS011;795;49.296;11.348;2023-03-29T08:23:34;9.13;;;4.67;;
1603;SDS011;795;49.296;11.348;2023-03-29T08:26:01;4.60;;;4.20;;
1603;SDS011;795;49.296;11.348;2023-03-29T08:28:28;5.23;;;4.43;;
1603;SDS011;795;49.296;11.348;2023-03-29T08:30:55;4.53;;;4.13;;
1603;SDS011;795;49.296;11.348;2023-03-29T08:33:22;4.50;;;4.00;;
1603;SDS011;795;49.296;11.348;2023-03-29T08:35:49;4.83;;;4.00;;
1603;SDS011;795;49.296;11.348;2023-03-29T08:38:16;3.90;;;3.60;;
1603;SDS011;795;49.296;11.348;2023-03-29T08:40:46;3.40;;;3.20;;
1603;SDS011;795;49.296;11.348;2023-03-29T08:43:20;4.20;;;3.60;;
1603;SDS011;795;49.296;11.348;2023-03-29T08:49:03;3.80;;;3.40;;
1603;SDS011;795;49.296;11.348;2023-03-29T08:51:37;3.87;;;2.80;;
1603;SDS011;795;49.296;11.348;2023-03-29T08:54:19;3.93;;;3.53;;
1603;SDS011;795;49.296;11.348;2023-03-29T08:56:57;3.07;;;2.77;;
1603;SDS011;795;49.296;11.348;2023-03-29T08:59:56;2.87;;;2.57;;
1603;SDS011;795;49.296;11.348;2023-03-29T09:02:31;2.73;;;2.53;;
1603;SDS011;795;49.296;11.348;2023-03-29T09:05:04;2.50;;;2.30;;
1603;SDS011;795;49.296;11.348;2023-03-29T09:07:51;2.80;;;2.60;;
1603;SDS011;795;49.296;11.348;2023-03-29T09:10:20;6.20;;;3.03;;
1603;SDS011;795;49.296;11.348;2023-03-29T09:13:11;3.70;;;3.30;;
1603;SDS011;795;49.296;11.348;2023-03-29T09:28:00;3.37;;;2.40;;
1603;SDS011;795;49.296;11.348;2023-03-29T09:33:54;2.63;;;2.47;;
1603;SDS011;795;49.296;11.348;2023-03-29T09:39:20;3.10;;;2.77;;
1603;SDS011;795;49.296;11.348;2023-03-29T09:41:55;2.40;;;2.20;;
1603;SDS011;795;49.296;11.348;2023-03-29T09:44:37;3.60;;;2.47;;
1603;SDS011;795;49.296;11.348;2023-03-29T09:47:19;2.93;;;2.47;;
1603;SDS011;795;49.296;11.348;2023-03-29T09:50:29;2.93;;;2.73;;
1603;SDS011;795;49.296;11.348;2023-03-29T09:53:06;2.40;;;2.23;;
1603;SDS011;795;49.296;11.348;2023-03-29T09:55:34;2.97;;;2.67;;
1603;SDS011;795;49.296;11.348;2023-03-29T09:58:15;3.23;;;2.20;;
1603;SDS011;795;49.296;11.348;2023-03-29T10:00:53;1.90;;;1.80;;
1603;SDS011;795;49.296;11.348;2023-03-29T10:03:27;2.90;;;2.40;;
1603;SDS011;795;49.296;11.348;2023-03-29T10:06:00;4.53;;;3.27;;
1603;SDS011;795;49.296;11.348;2023-03-29T10:08:35;4.33;;;3.93;;
1603;SDS011;795;49.296;11.348;2023-03-29T10:11:19;3.23;;;3.03;;
1603;SDS011;795;49.296;11.348;2023-03-29T10:13:57;7.03;;;2.27;;
1603;SDS011;795;49.296;11.348;2023-03-29T10:16:44;3.63;;;2.63;;
1603;SDS011;795;49.296;11.348;2023-03-29T10:19:19;3.70;;;2.50;;
1603;SDS011;795;49.296;11.348;2023-03-29T10:22:05;3.57;;;2.20;;
1603;SDS011;795;49.296;11.348;2023-03-29T10:24:51;6.90;;;2.60;;
1603;SDS011;795;49.296;11.348;2023-03-29T10:27:25;2.60;;;2.40;;
1603;SDS011;795;49.296;11.348;2023-03-29T10:30:00;4.03;;;1.80;;
1603;SDS011;795;49.296;11.348;2023-03-29T10:32:45;2.80;;;2.50;;
1603;SDS011;795;49.296;11.348;2023-03-29T10:35:21;2.60;;;2.40;;
1603;SDS011;795;49.296;11.348;2023-03-29T10:38:02;3.30;;;2.03;;
1603;SDS011;795;49.296;11.348;2023-03-29T10:40:43;2.70;;;2.20;;
1603;SDS011;795;49.296;11.348;2023-03-29T10:43:28;3.63;;;2.90;;
1603;SDS011;795;49.296;11.348;2023-03-29T10:46:09;2.60;;;2.30;;
1603;SDS011;795;49.296;11.348;2023-03-29T10:48:48;2.50;;;2.13;;
1603;SDS011;795;49.296;11.348;2023-03-29T10:51:23;3.40;;;3.10;;
1603;SDS011;795;49.296;11.348;2023-03-29T10:53:56;3.10;;;2.80;;
1603;SDS011;795;49.296;11.348;2023-03-29T11:08:05;2.47;;;2.27;;
1603;SDS011;795;49.296;11.348;2023-03-29T11:11:23;3.47;;;2.67;;
1603;SDS011;795;49.296;11.348;2023-03-29T11:14:41;7.03;;;2.20;;
1603;SDS011;795;49.296;11.348;2023-03-29T11:18:05;3.67;;;2.80;;
1603;SDS011;795;49.296;11.348;2023-03-29T11:27:27;2.93;;;2.60;;
1603;SDS011;795;49.296;11.348;2023-03-29T11:30:38;4.70;;;2.40;;
1603;SDS011;795;49.296;11.348;2023-03-29T11:33:34;2.93;;;2.50;;
1603;SDS011;795;49.296;11.348;2023-03-29T11:42:32;5.40;;;2.50;;
1603;SDS011;795;49.296;11.348;2023-03-29T11:45:10;1.53;;;1.43;;
1603;SDS011;795;49.296;11.348;2023-03-29T11:47:54;3.17;;;2.07;;
1603;SDS011;795;49.296;11.348;2023-03-29T11:50:32;2.37;;;2.00;;
1603;SDS011;795;49.296;11.348;2023-03-29T11:53:35;3.00;;;2.10;;
1603;SDS011;795;49.296;11.348;2023-03-29T11:56:32;2.70;;;2.37;;
1603;SDS011;795;49.296;11.348;2023-03-29T11:59:15;3.30;;;2.20;;
1603;SDS011;795;49.296;11.348;2023-03-29T12:05:10;2.83;;;1.83;;
1603;SDS011;795;49.296;11.348;2023-03-29T12:07:52;2.87;;;2.50;;
1603;SDS011;795;49.296;11.348;2023-03-29T12:13:23;4.10;;;2.20;;
1603;SDS011;795;49.296;11.348;2023-03-29T12:16:07;2.80;;;2.03;;
1603;SDS011;795;49.296;11.348;2023-03-29T12:19:18;2.90;;;2.60;;
1603;SDS011;795;49.296;11.348;2023-03-29T12:21:57;2.70;;;1.90;;
1603;SDS011;795;49.296;11.348;2023-03-29T12:24:28;7.70;;;2.20;;
1603;SDS011;795;49.296;11.348;2023-03-29T12:32:52;3.40;;;2.33;;
1603;SDS011;795;49.296;11.348;2023-03-29T12:36:31;2.80;;;2.03;;
1603;SDS011;795;49.296;11.348;2023-03-29T12:39:16;3.47;;;1.67;;
1603;SDS011;795;49.296;11.348;2023-03-29T12:41:46;2.03;;;1.83;;
1603;SDS011;795;49.296;11.348;2023-03-29T12:44:19;3.80;;;2.30;;
1603;SDS011;795;49.296;11.348;2023-03-29T12:46:52;2.63;;;1.90;;
1603;SDS011;795;49.296;11.348;2023-03-29T12:49:28;4.40;;;1.87;;
1603;SDS011;795;49.296;11.348;2023-03-29T12:52:07;1.93;;;1.67;;
1603;SDS011;795;49.296;11.348;2023-03-29T12:54:53;4.83;;;2.53;;
1603;SDS011;795;49.296;11.348;2023-03-29T12:57:37;2.70;;;1.90;;
1603;SDS011;795;49.296;11.348;2023-03-29T13:00:20;1.93;;;1.70;;
1603;SDS011;795;49.296;11.348;2023-03-29T13:03:27;2.30;;;2.07;;
1603;SDS011;795;49.296;11.348;2023-03-29T13:06:26;14.20;;;6.30;;
1603;SDS011;795;49.296;11.348;2023-03-29T13:09:20;9.17;;;5.40;;
1603;SDS011;795;49.296;11.348;2023-03-29T13:17:55;3.93;;;2.73;;
1603;SDS011;795;49.296;11.348;2023-03-29T13:21:06;5.50;;;2.37;;
1603;SDS011;795;49.296;11.348;2023-03-29T13:33:13;2.70;;;2.50;;
1603;SDS011;795;49.296;11.348;2023-03-29T13:36:20;3.77;;;2.63;;
1603;SDS011;795;49.296;11.348;2023-03-29T13:39:29;4.40;;;2.77;;
1603;SDS011;795;49.296;11.348;2023-03-29T13:42:27;6.27;;;2.60;;
1603;SDS011;795;49.296;11.348;2023-03-29T13:45:14;2.70;;;2.00;;
1603;SDS011;795;49.296;11.348;2023-03-29T13:47:47;2.50;;;2.30;;
1603;SDS011;795;49.296;11.348;2023-03-29T13:50:31;4.70;;;2.80;;
1603;SDS011;795;49.296;11.348;2023-03-29T13:53:25;2.30;;;2.10;;
1603;SDS011;795;49.296;11.348;2023-03-29T13:56:20;3.20;;;2.40;;
1603;SDS011;795;49.296;11.348;2023-03-29T13:59:01;5.43;;;2.73;;
1603;SDS011;795;49.296;11.348;2023-03-29T14:01:57;3.00;;;2.60;;
1603;SDS011;795;49.296;11.348;2023-03-29T14:04:30;3.10;;;2.80;;
1603;SDS011;795;49.296;11.348;2023-03-29T14:07:10;2.63;;;2.13;;
1603;SDS011;795;49.296;11.348;2023-03-29T14:09:42;3.47;;;3.00;;
1603;SDS011;795;49.296;11.348;2023-03-29T14:12:16;8.87;;;3.70;;
1603;SDS011;795;49.296;11.348;2023-03-29T14:14:44;6.50;;;3.37;;
1603;SDS011;795;49.296;11.348;2023-03-29T14:17:24;2.83;;;2.50;;
1603;SDS011;795;49.296;11.348;2023-03-29T14:19:52;3.50;;;2.70;;
1603;SDS011;795;49.296;11.348;2023-03-29T14:22:29;8.47;;;3.80;;
1603;SDS011;795;49.296;11.348;2023-03-29T14:25:10;3.50;;;3.20;;
1603;SDS011;795;49.296;11.348;2023-03-29T14:27:43;5.23;;;2.87;;
1603;SDS011;795;49.296;11.348;2023-03-29T14:32:53;3.00;;;2.30;;
1603;SDS011;795;49.296;11.348;2023-03-29T14:35:26;2.73;;;2.53;;
1603;SDS011;795;49.296;11.348;2023-03-29T14:37:58;4.80;;;2.27;;
1603;SDS011;795;49.296;11.348;2023-03-29T14:40:27;3.43;;;2.57;;
1603;SDS011;795;49.296;11.348;2023-03-29T14:42:56;3.77;;;2.53;;
1603;SDS011;795;49.296;11.348;2023-03-29T14:45:33;1.87;;;1.77;;
1603;SDS011;795;49.296;11.348;2023-03-29T14:48:03;2.93;;;2.67;;
1603;SDS011;795;49.296;11.348;2023-03-29T14:50:31;7.87;;;2.33;;
1603;SDS011;795;49.296;11.348;2023-03-29T14:52:59;3.13;;;2.37;;
1603;SDS011;795;49.296;11.348;2023-03-29T14:55:28;3.30;;;2.63;;
1603;SDS011;795;49.296;11.348;2023-03-29T14:57:56;3.20;;;2.30;;
1603;SDS011;795;49.296;11.348;2023-03-29T15:03:10;2.70;;;2.50;;
1603;SDS011;795;49.296;11.348;2023-03-29T15:05:42;2.40;;;2.30;;
1603;SDS011;795;49.296;11.348;2023-03-29T15:08:20;2.80;;;2.60;;
1603;SDS011;795;49.296;11.348;2023-03-29T15:11:00;4.67;;;2.13;;
1603;SDS011;795;49.296;11.348;2023-03-29T15:13:39;3.47;;;3.17;;
1603;SDS011;795;49.296;11.348;2023-03-29T15:16:11;2.40;;;2.13;;
1603;SDS011;795;49.296;11.348;2023-03-29T15:18:44;2.87;;;2.60;;
1603;SDS011;795;49.296;11.348;2023-03-29T15:21:17;5.13;;;2.60;;
1603;SDS011;795;49.296;11.348;2023-03-29T15:23:52;2.97;;;2.50;;
1603;SDS011;795;49.296;11.348;2023-03-29T15:26:35;3.43;;;2.27;;
1603;SDS011;795;49.296;11.348;2023-03-29T15:29:04;3.73;;;2.40;;
1603;SDS011;795;49.296;11.348;2023-03-29T15:31:37;2.80;;;2.33;;
1603;SDS011;795;49.296;11.348;2023-03-29T15:34:09;2.73;;;2.47;;
1603;SDS011;795;49.296;11.348;2023-03-29T15:36:49;3.73;;;2.60;;
1603;SDS011;795;49.296;11.348;2023-03-29T15:39:17;3.53;;;2.50;;
1603;SDS011;795;49.296;11.348;2023-03-29T15:41:45;2.43;;;2.23;;
1603;SDS011;795;49.296;11.348;2023-03-29T15:44:21;2.83;;;2.27;;
1603;SDS011;795;49.296;11.348;2023-03-29T15:46:57;6.10;;;2.77;;
1603;SDS011;795;49.296;11.348;2023-03-29T15:49:25;2.03;;;1.93;;
1603;SDS011;795;49.296;11.348;2023-03-29T15:51:52;3.90;;;2.07;;
1603;SDS011;795;49.296;11.348;2023-03-29T15:54:20;3.13;;;2.17;;
1603;SDS011;795;49.296;11.348;2023-03-29T15:56:50;5.80;;;2.43;;
1603;SDS011;795;49.296;11.348;2023-03-29T15:59:26;2.97;;;2.33;;
1603;SDS011;795;49.296;11.348;2023-03-29T16:01:53;2.70;;;2.13;;
1603;SDS011;795;49.296;11.348;2023-03-29T16:04:21;6.50;;;2.70;;
1603;SDS011;795;49.296;11.348;2023-03-29T16:06:49;4.50;;;2.00;;
1603;SDS011;795;49.296;11.348;2023-03-29T16:09:20;1.97;;;1.77;;
1603;SDS011;795;49.296;11.348;2023-03-29T16:11:48;3.60;;;2.30;;
1603;SDS011;795;49.296;11.348;2023-03-29T16:14:20;2.43;;;2.23;;
1603;SDS011;795;49.296;11.348;2023-03-29T16:16:56;2.97;;;1.90;;
1603;SDS011;795;49.296;11.348;2023-03-29T16:19:26;3.93;;;2.40;;
1603;SDS011;795;49.296;11.348;2023-03-29T16:21:56;2.63;;;2.40;;
1603;SDS011;795;49.296;11.348;2023-03-29T16:24:29;6.83;;;3.17;;
1603;SDS011;795;49.296;11.348;2023-03-29T16:26:58;2.50;;;2.30;;
1603;SDS011;795;49.296;11.348;2023-03-29T16:29:27;3.67;;;3.37;;
1603;SDS011;795;49.296;11.348;2023-03-29T16:31:55;2.73;;;2.10;;
1603;SDS011;795;49.296;11.348;2023-03-29T16:34:23;2.53;;;2.33;;
1603;SDS011;795;49.296;11.348;2023-03-29T16:36:50;2.20;;;2.10;;
1603;SDS011;795;49.296;11.348;2023-03-29T16:39:18;2.80;;;2.43;;
1603;SDS011;795;49.296;11.348;2023-03-29T16:41:46;2.70;;;2.50;;
1603;SDS011;795;49.296;11.348;2023-03-29T16:44:15;3.07;;;2.23;;
1603;SDS011;795;49.296;11.348;2023-03-29T16:46:49;10.33;;;2.50;;
1603;SDS011;795;49.296;11.348;2023-03-29T16:49:22;2.30;;;2.10;;
1603;SDS011;795;49.296;11.348;2023-03-29T16:51:49;2.73;;;2.47;;
1603;SDS011;795;49.296;11.348;2023-03-29T16:54:16;2.97;;;2.07;;
1603;SDS011;795;49.296;11.348;2023-03-29T16:56:44;2.57;;;2.37;;
1603;SDS011;795;49.296;11.348;2023-03-29T16:59:12;6.17;;;2.47;;
1603;SDS011;795;49.296;11.348;2023-03-29T17:01:38;4.37;;;2.80;;
1603;SDS011;795;49.296;11.348;2023-03-29T17:04:06;2.53;;;2.33;;
1603;SDS011;795;49.296;11.348;2023-03-29T17:06:34;3.80;;;2.50;;
1603;SDS011;795;49.296;11.348;2023-03-29T17:09:01;3.50;;;2.40;;
1603;SDS011;795;49.296;11.348;2023-03-29T17:11:30;4.07;;;2.83;;
1603;SDS011;795;49.296;11.348;2023-03-29T17:13:57;4.03;;;2.73;;
1603;SDS011;795;49.296;11.348;2023-03-29T17:16:25;3.03;;;2.30;;
1603;SDS011;795;49.296;11.348;2023-03-29T17:18:54;4.47;;;3.03;;
1603;SDS011;795;49.296;11.348;2023-03-29T17:21:25;3.20;;;2.30;;
1603;SDS011;795;49.296;11.348;2023-03-29T17:23:54;3.80;;;2.83;;
1603;SDS011;795;49.296;11.348;2023-03-29T17:26:21;5.47;;;4.40;;
1603;SDS011;795;49.296;11.348;2023-03-29T17:28:48;10.30;;;6.40;;